Currently 44°F in Temecula, California, USA
44°F
63°F / 35°F
calm
0.00"
Friday, February 24, 2017 10:48 PM PST

Temecula, California Weather Summary
Last 36 Hours

Temperature Winds Hourly Humidity Dewpoint
Time Report Norm Report Norm Max Gusts Precip. Rpt. Norm Rpt. Norm Pressure
1Fri 10:48 PM  43.7°F  50°F  calm  1 mph  none  0.00"  83%  84%  39°F  45°F  30.23"
Fri 10:00 PM  45.8°F  51°F  calm  2 mph  4 mph  0.00"  78%  82%  39°F  46°F  30.22"
Fri 09:00 PM  47.0°F  52°F  2 mph E  2 mph  6 mph  0.00"  71%  80%  38°F  46°F  30.22"
Fri 08:00 PM  48.6°F  53°F  3 mph S  3 mph  8 mph  0.00"  66%  77%  37°F  46°F  30.21"
Fri 07:00 PM  50.2°F  55°F  5 mph S  3 mph  8 mph  0.00"  63%  73%  38°F  46°F  30.19"
Fri 06:00 PM  53.2°F  57°F  5 mph S  4 mph  11 mph  0.00"  65%  68%  41°F  46°F  30.18"
Fri 05:00 PM  58.1°F  61°F  6 mph SW  6 mph  11 mph  0.00"  61%  61%  44°F  47°F  30.16"
Fri 04:00 PM  60.9°F  63°F  5 mph SW  7 mph  12 mph  0.00"  53%  56%  43°F  47°F  30.13"
2Fri 03:03 PM  62.6°F  65°F  7 mph SW  8 mph  14 mph  ----  50%  53%  43°F  46°F  30.11"
Fri 03:00 PM  62.6°F  65°F  7 mph SW  8 mph  14 mph  0.00"  49%  53%  43°F  46°F  30.11"
Fri 02:00 PM  61.3°F  65°F  1 mph E  7 mph  9 mph  0.00"  39%  52%  35°F  46°F  30.13"
Fri 01:00 PM  58.9°F  64°F  calm  6 mph  10 mph  0.00"  40%  53%  33°F  46°F  30.16"
Fri 12:00 PM  57.6°F  62°F  calm  5 mph  10 mph  0.00"  44%  56%  35°F  46°F  30.20"
Fri 11:00 AM  54.4°F  60°F  3 mph SW  4 mph  9 mph  0.00"  58%  64%  39°F  47°F  30.22"
Fri 10:00 AM  49.6°F  55°F  4 mph E  3 mph  6 mph  0.00"  72%  74%  40°F  47°F  30.24"
Fri 09:00 AM  44.4°F  51°F  4 mph NE  2 mph  6 mph  0.00"  82%  84%  39°F  46°F  30.24"
Fri 08:00 AM  39.1°F  47°F  calm  2 mph  4 mph  0.00"  90%  91%  36°F  44°F  30.23"
Fri 07:00 AM  35.5°F  45°F  calm  1 mph  none  0.00"  96%  93%  34°F  43°F  30.20"
3Fri 06:36 AM  35.2°F  45°F  calm  1 mph  none  ----  96%  93%  34°F  43°F  30.18"
Fri 06:00 AM  35.7°F  45°F  calm  2 mph  none  0.00"  96%  93%  35°F  43°F  30.16"
Fri 05:00 AM  36.6°F  46°F  calm  1 mph  1 mph  0.00"  95%  92%  35°F  43°F  30.17"
Fri 04:00 AM  37.4°F  46°F  calm  2 mph  2 mph  0.00"  94%  91%  36°F  44°F  30.18"
Fri 03:00 AM  38.5°F  47°F  calm  2 mph  none  0.00"  92%  90%  36°F  44°F  30.18"
Fri 02:00 AM  39.7°F  47°F  calm  1 mph  none  0.00"  90%  89%  37°F  44°F  30.18"
Fri 01:00 AM  41.3°F  48°F  calm  1 mph  5 mph  0.00"  87%  88%  38°F  45°F  30.18"
Fri 12:00 AM  42.7°F  49°F  3 mph NE  2 mph  6 mph  0.00"  85%  86%  38°F  45°F  30.18"
Thu 11:00 PM  44.7°F  50°F  calm  2 mph  5 mph  0.00"  81%  85%  39°F  46°F  30.16"
Thu 10:00 PM  45.6°F  51°F  2 mph S  2 mph  8 mph  0.00"  78%  83%  39°F  46°F  30.16"
Thu 09:00 PM  46.3°F  52°F  3 mph S  2 mph  8 mph  0.00"  77%  81%  39°F  46°F  30.15"
Thu 08:00 PM  46.7°F  53°F  2 mph S  3 mph  9 mph  0.00"  76%  78%  39°F  46°F  30.14"
Thu 07:00 PM  48.5°F  55°F  2 mph S  4 mph  13 mph  0.00"  72%  74%  39°F  47°F  30.12"
Thu 06:00 PM  50.2°F  57°F  6 mph SW  4 mph  14 mph  0.00"  67%  69%  39°F  47°F  30.09"
Thu 05:00 PM  53.2°F  61°F  7 mph SW  6 mph  16 mph  0.00"  59%  62%  39°F  47°F  30.07"
Thu 04:00 PM  54.9°F  63°F  7 mph SW  7 mph  18 mph  0.00"  55%  57%  38°F  47°F  30.05"
Thu 03:00 PM  56.7°F  65°F  8 mph SW  8 mph  19 mph  0.00"  52%  53%  38°F  47°F  30.03"
Thu 02:00 PM  58.4°F  65°F  12 mph SW  7 mph  22 mph  0.00"  51%  52%  39°F  46°F  30.03"
Thu 01:00 PM  59.3°F  64°F  9 mph SW  6 mph  16 mph  0.00"  48%  53%  39°F  46°F  30.04"
Thu 12:00 PM  58.7°F  62°F  4 mph S  5 mph  12 mph  0.00"  53%  57%  41°F  46°F  30.08"
Thu 11:00 AM  55.1°F  59°F  4 mph S  4 mph  8 mph  0.00"  53%  64%  37°F  47°F  30.10"

  1. Current weather data. No green row appears if the current weather data is also the high or low for the current day.
  2. High temperature for the current day.
  3. Low temperature for the current day.

The Temecula weather pages are a service of WeatherCurrents. Temecula, California is located in the Temecula Valley, in southwestern Riverside County, along the Interstate 15 highway. The Temecula Valley's rolling hills are home to the Temecula wine country, vineyards, golf courses, a casino resort, and Old Town Temecula.
Copyright ©Fri Feb 24 22:49:11 PST 2017  WeatherCurrents. All rights reserved. - Submit questions and comments - Privacy Policy

This page automatically refreshes every 10 minutes.